sensor_id;sensor_type;location;lat;lon;timestamp;P1;durP1;ratioP1;P2;durP2;ratioP2
57531;SDS011;43359;51.296;16.904;2022-11-02T00:00:53;157.63;;;146.48;;
57531;SDS011;43359;51.296;16.904;2022-11-02T00:03:19;153.60;;;142.40;;
57531;SDS011;43359;51.296;16.904;2022-11-02T00:05:45;164.95;;;153.05;;
57531;SDS011;43359;51.296;16.904;2022-11-02T00:08:12;171.88;;;159.48;;
57531;SDS011;43359;51.296;16.904;2022-11-02T00:10:38;172.52;;;160.48;;
57531;SDS011;43359;51.296;16.904;2022-11-02T00:13:04;159.30;;;148.20;;
57531;SDS011;43359;51.296;16.904;2022-11-02T00:15:32;176.73;;;165.25;;
57531;SDS011;43359;51.296;16.904;2022-11-02T00:18:00;173.35;;;160.30;;
57531;SDS011;43359;51.296;16.904;2022-11-02T00:20:28;162.70;;;149.02;;
57531;SDS011;43359;51.296;16.904;2022-11-02T00:22:55;157.55;;;143.98;;
57531;SDS011;43359;51.296;16.904;2022-11-02T00:25:22;164.15;;;149.77;;
57531;SDS011;43359;51.296;16.904;2022-11-02T00:27:51;160.85;;;147.68;;
57531;SDS011;43359;51.296;16.904;2022-11-02T00:30:17;148.77;;;136.10;;
57531;SDS011;43359;51.296;16.904;2022-11-02T00:32:44;144.63;;;132.02;;
57531;SDS011;43359;51.296;16.904;2022-11-02T00:35:12;150.07;;;137.18;;
57531;SDS011;43359;51.296;16.904;2022-11-02T00:37:38;151.15;;;139.20;;
57531;SDS011;43359;51.296;16.904;2022-11-02T00:40:04;150.70;;;138.23;;
57531;SDS011;43359;51.296;16.904;2022-11-02T00:42:31;152.48;;;140.35;;
57531;SDS011;43359;51.296;16.904;2022-11-02T00:44:57;147.13;;;135.05;;
57531;SDS011;43359;51.296;16.904;2022-11-02T00:47:23;153.60;;;141.38;;
57531;SDS011;43359;51.296;16.904;2022-11-02T00:49:49;146.23;;;134.88;;
57531;SDS011;43359;51.296;16.904;2022-11-02T00:52:15;161.02;;;149.27;;
57531;SDS011;43359;51.296;16.904;2022-11-02T00:54:41;175.23;;;162.73;;
57531;SDS011;43359;51.296;16.904;2022-11-02T00:57:08;162.85;;;150.88;;
57531;SDS011;43359;51.296;16.904;2022-11-02T00:59:35;152.88;;;142.05;;
57531;SDS011;43359;51.296;16.904;2022-11-02T01:02:01;160.10;;;149.77;;
57531;SDS011;43359;51.296;16.904;2022-11-02T01:04:27;155.32;;;144.93;;
57531;SDS011;43359;51.296;16.904;2022-11-02T01:06:53;155.98;;;145.40;;
57531;SDS011;43359;51.296;16.904;2022-11-02T01:09:20;154.98;;;144.93;;
57531;SDS011;43359;51.296;16.904;2022-11-02T01:11:46;152.55;;;141.93;;
57531;SDS011;43359;51.296;16.904;2022-11-02T01:14:12;159.48;;;149.45;;
57531;SDS011;43359;51.296;16.904;2022-11-02T01:16:39;150.15;;;140.82;;
57531;SDS011;43359;51.296;16.904;2022-11-02T01:19:06;157.18;;;147.82;;
57531;SDS011;43359;51.296;16.904;2022-11-02T01:21:32;163.30;;;153.65;;
57531;SDS011;43359;51.296;16.904;2022-11-02T01:23:58;163.10;;;153.20;;
57531;SDS011;43359;51.296;16.904;2022-11-02T01:26:24;147.23;;;138.13;;
57531;SDS011;43359;51.296;16.904;2022-11-02T01:28:52;147.43;;;138.73;;
57531;SDS011;43359;51.296;16.904;2022-11-02T01:31:18;162.20;;;152.65;;
57531;SDS011;43359;51.296;16.904;2022-11-02T01:33:44;147.10;;;138.68;;
57531;SDS011;43359;51.296;16.904;2022-11-02T01:36:12;158.57;;;149.30;;
57531;SDS011;43359;51.296;16.904;2022-11-02T01:38:38;138.65;;;130.63;;
57531;SDS011;43359;51.296;16.904;2022-11-02T01:41:05;146.23;;;136.75;;
57531;SDS011;43359;51.296;16.904;2022-11-02T01:43:32;147.05;;;137.98;;
57531;SDS011;43359;51.296;16.904;2022-11-02T01:48:34;129.15;;;120.90;;
57531;SDS011;43359;51.296;16.904;2022-11-02T01:51:04;149.77;;;140.43;;
57531;SDS011;43359;51.296;16.904;2022-11-02T01:53:32;141.27;;;132.70;;
57531;SDS011;43359;51.296;16.904;2022-11-02T01:55:59;146.30;;;138.00;;
57531;SDS011;43359;51.296;16.904;2022-11-02T01:58:26;146.20;;;137.20;;
57531;SDS011;43359;51.296;16.904;2022-11-02T02:00:53;148.00;;;139.30;;
57531;SDS011;43359;51.296;16.904;2022-11-02T02:03:20;148.55;;;140.25;;
57531;SDS011;43359;51.296;16.904;2022-11-02T02:05:48;150.70;;;141.93;;
57531;SDS011;43359;51.296;16.904;2022-11-02T02:08:16;159.70;;;151.23;;
57531;SDS011;43359;51.296;16.904;2022-11-02T02:10:43;151.70;;;143.77;;
57531;SDS011;43359;51.296;16.904;2022-11-02T02:13:09;154.98;;;146.63;;
57531;SDS011;43359;51.296;16.904;2022-11-02T02:15:39;150.57;;;142.68;;
57531;SDS011;43359;51.296;16.904;2022-11-02T02:18:09;140.45;;;133.07;;
57531;SDS011;43359;51.296;16.904;2022-11-02T02:20:41;141.93;;;134.23;;
57531;SDS011;43359;51.296;16.904;2022-11-02T02:23:29;142.63;;;134.63;;
57531;SDS011;43359;51.296;16.904;2022-11-02T02:26:00;135.30;;;127.70;;
57531;SDS011;43359;51.296;16.904;2022-11-02T02:36:20;140.73;;;133.43;;
57531;SDS011;43359;51.296;16.904;2022-11-02T02:38:50;146.02;;;138.48;;
57531;SDS011;43359;51.296;16.904;2022-11-02T02:41:24;131.70;;;124.78;;
57531;SDS011;43359;51.296;16.904;2022-11-02T02:43:54;133.45;;;126.38;;
57531;SDS011;43359;51.296;16.904;2022-11-02T02:46:23;137.27;;;130.00;;
57531;SDS011;43359;51.296;16.904;2022-11-02T02:48:51;130.43;;;123.72;;
57531;SDS011;43359;51.296;16.904;2022-11-02T02:51:18;141.73;;;134.90;;
57531;SDS011;43359;51.296;16.904;2022-11-02T02:53:46;142.40;;;135.20;;
57531;SDS011;43359;51.296;16.904;2022-11-02T02:56:14;145.00;;;138.00;;
57531;SDS011;43359;51.296;16.904;2022-11-02T02:58:52;152.25;;;144.88;;
57531;SDS011;43359;51.296;16.904;2022-11-02T03:01:21;143.50;;;136.32;;
57531;SDS011;43359;51.296;16.904;2022-11-02T03:03:48;144.77;;;137.25;;
57531;SDS011;43359;51.296;16.904;2022-11-02T03:06:18;142.70;;;135.32;;
57531;SDS011;43359;51.296;16.904;2022-11-02T03:11:50;139.82;;;132.40;;
57531;SDS011;43359;51.296;16.904;2022-11-02T03:14:34;136.55;;;129.13;;
57531;SDS011;43359;51.296;16.904;2022-11-02T03:19:36;118.97;;;111.95;;
57531;SDS011;43359;51.296;16.904;2022-11-02T03:22:29;116.82;;;109.30;;
57531;SDS011;43359;51.296;16.904;2022-11-02T03:27:20;145.68;;;136.98;;
57531;SDS011;43359;51.296;16.904;2022-11-02T03:29:55;136.45;;;128.77;;
57531;SDS011;43359;51.296;16.904;2022-11-02T03:32:26;135.05;;;127.00;;
57531;SDS011;43359;51.296;16.904;2022-11-02T03:34:55;130.55;;;122.80;;
57531;SDS011;43359;51.296;16.904;2022-11-02T03:37:26;137.15;;;128.48;;
57531;SDS011;43359;51.296;16.904;2022-11-02T03:39:56;133.10;;;124.72;;
57531;SDS011;43359;51.296;16.904;2022-11-02T03:42:24;141.93;;;133.40;;
57531;SDS011;43359;51.296;16.904;2022-11-02T03:44:55;140.63;;;131.05;;
57531;SDS011;43359;51.296;16.904;2022-11-02T03:47:23;125.65;;;116.18;;
57531;SDS011;43359;51.296;16.904;2022-11-02T03:49:50;128.02;;;117.63;;
57531;SDS011;43359;51.296;16.904;2022-11-02T03:52:20;125.47;;;116.82;;
57531;SDS011;43359;51.296;16.904;2022-11-02T03:54:52;138.57;;;129.10;;
57531;SDS011;43359;51.296;16.904;2022-11-02T03:57:20;133.82;;;124.60;;
57531;SDS011;43359;51.296;16.904;2022-11-02T03:59:47;123.75;;;114.60;;
57531;SDS011;43359;51.296;16.904;2022-11-02T04:02:14;111.63;;;103.45;;
57531;SDS011;43359;51.296;16.904;2022-11-02T04:04:50;106.88;;;98.90;;
57531;SDS011;43359;51.296;16.904;2022-11-02T04:07:21;119.88;;;110.95;;
57531;SDS011;43359;51.296;16.904;2022-11-02T04:09:48;113.20;;;105.43;;
57531;SDS011;43359;51.296;16.904;2022-11-02T04:12:14;108.50;;;100.00;;
57531;SDS011;43359;51.296;16.904;2022-11-02T04:14:59;106.18;;;98.13;;
57531;SDS011;43359;51.296;16.904;2022-11-02T04:17:25;101.70;;;93.40;;
57531;SDS011;43359;51.296;16.904;2022-11-02T04:20:10;107.05;;;99.05;;
57531;SDS011;43359;51.296;16.904;2022-11-02T04:22:36;102.30;;;94.65;;
57531;SDS011;43359;51.296;16.904;2022-11-02T04:25:24;110.07;;;102.25;;
57531;SDS011;43359;51.296;16.904;2022-11-02T04:27:51;100.20;;;92.97;;
57531;SDS011;43359;51.296;16.904;2022-11-02T04:30:20;96.93;;;89.38;;
57531;SDS011;43359;51.296;16.904;2022-11-02T04:32:48;89.70;;;82.68;;
57531;SDS011;43359;51.296;16.904;2022-11-02T04:35:33;100.57;;;93.30;;
57531;SDS011;43359;51.296;16.904;2022-11-02T04:37:59;104.80;;;97.38;;
57531;SDS011;43359;51.296;16.904;2022-11-02T04:40:44;123.03;;;114.30;;
57531;SDS011;43359;51.296;16.904;2022-11-02T04:43:10;109.43;;;101.38;;
57531;SDS011;43359;51.296;16.904;2022-11-02T04:45:36;102.82;;;94.60;;
57531;SDS011;43359;51.296;16.904;2022-11-02T04:48:06;94.40;;;86.75;;
57531;SDS011;43359;51.296;16.904;2022-11-02T04:50:32;110.35;;;101.43;;
57531;SDS011;43359;51.296;16.904;2022-11-02T04:52:59;104.95;;;97.32;;
57531;SDS011;43359;51.296;16.904;2022-11-02T04:55:25;113.85;;;104.97;;
57531;SDS011;43359;51.296;16.904;2022-11-02T04:57:51;101.53;;;93.45;;
57531;SDS011;43359;51.296;16.904;2022-11-02T05:00:18;111.78;;;102.72;;
57531;SDS011;43359;51.296;16.904;2022-11-02T05:02:47;92.72;;;84.25;;
57531;SDS011;43359;51.296;16.904;2022-11-02T05:05:14;79.03;;;71.28;;
57531;SDS011;43359;51.296;16.904;2022-11-02T05:07:41;78.20;;;70.25;;
57531;SDS011;43359;51.296;16.904;2022-11-02T05:10:07;72.93;;;65.25;;
57531;SDS011;43359;51.296;16.904;2022-11-02T05:12:34;78.10;;;69.97;;
57531;SDS011;43359;51.296;16.904;2022-11-02T05:15:00;82.25;;;70.07;;
57531;SDS011;43359;51.296;16.904;2022-11-02T05:17:29;82.22;;;74.38;;
57531;SDS011;43359;51.296;16.904;2022-11-02T05:19:56;88.43;;;79.85;;
57531;SDS011;43359;51.296;16.904;2022-11-02T05:22:22;97.22;;;88.40;;
57531;SDS011;43359;51.296;16.904;2022-11-02T05:24:48;95.35;;;85.47;;
57531;SDS011;43359;51.296;16.904;2022-11-02T05:27:14;96.43;;;86.53;;
57531;SDS011;43359;51.296;16.904;2022-11-02T05:29:41;109.88;;;100.53;;
57531;SDS011;43359;51.296;16.904;2022-11-02T05:32:07;109.25;;;100.13;;
57531;SDS011;43359;51.296;16.904;2022-11-02T05:34:33;119.28;;;108.68;;
57531;SDS011;43359;51.296;16.904;2022-11-02T05:36:59;116.22;;;106.22;;
57531;SDS011;43359;51.296;16.904;2022-11-02T05:39:25;130.02;;;119.30;;
57531;SDS011;43359;51.296;16.904;2022-11-02T05:41:51;111.03;;;100.75;;
57531;SDS011;43359;51.296;16.904;2022-11-02T05:44:18;118.47;;;106.90;;
57531;SDS011;43359;51.296;16.904;2022-11-02T05:46:44;124.53;;;113.13;;
57531;SDS011;43359;51.296;16.904;2022-11-02T05:49:10;121.95;;;110.50;;
57531;SDS011;43359;51.296;16.904;2022-11-02T05:51:36;128.48;;;116.68;;
57531;SDS011;43359;51.296;16.904;2022-11-02T05:54:03;132.52;;;121.28;;
57531;SDS011;43359;51.296;16.904;2022-11-02T05:56:30;123.65;;;111.28;;
57531;SDS011;43359;51.296;16.904;2022-11-02T05:58:56;118.97;;;106.80;;
57531;SDS011;43359;51.296;16.904;2022-11-02T06:01:22;123.30;;;112.50;;
57531;SDS011;43359;51.296;16.904;2022-11-02T06:03:48;115.45;;;106.05;;
57531;SDS011;43359;51.296;16.904;2022-11-02T06:06:14;103.85;;;95.00;;
57531;SDS011;43359;51.296;16.904;2022-11-02T06:08:40;106.75;;;96.93;;
57531;SDS011;43359;51.296;16.904;2022-11-02T06:11:10;101.57;;;91.65;;
57531;SDS011;43359;51.296;16.904;2022-11-02T06:13:36;113.88;;;103.93;;
57531;SDS011;43359;51.296;16.904;2022-11-02T06:16:03;112.00;;;102.88;;
57531;SDS011;43359;51.296;16.904;2022-11-02T06:18:30;112.20;;;104.10;;
57531;SDS011;43359;51.296;16.904;2022-11-02T06:20:56;119.50;;;109.32;;
57531;SDS011;43359;51.296;16.904;2022-11-02T06:23:23;118.32;;;109.88;;
57531;SDS011;43359;51.296;16.904;2022-11-02T06:25:53;108.85;;;99.57;;
57531;SDS011;43359;51.296;16.904;2022-11-02T06:28:19;113.95;;;104.82;;
57531;SDS011;43359;51.296;16.904;2022-11-02T06:30:54;117.05;;;108.15;;
57531;SDS011;43359;51.296;16.904;2022-11-02T06:33:20;120.30;;;111.22;;
57531;SDS011;43359;51.296;16.904;2022-11-02T06:35:47;120.93;;;112.25;;
57531;SDS011;43359;51.296;16.904;2022-11-02T06:38:14;121.88;;;111.30;;
57531;SDS011;43359;51.296;16.904;2022-11-02T06:40:40;124.13;;;113.93;;
57531;SDS011;43359;51.296;16.904;2022-11-02T06:43:06;124.70;;;113.53;;
57531;SDS011;43359;51.296;16.904;2022-11-02T06:45:33;120.35;;;110.95;;
57531;SDS011;43359;51.296;16.904;2022-11-02T06:47:59;108.88;;;100.10;;
57531;SDS011;43359;51.296;16.904;2022-11-02T06:50:26;104.53;;;95.95;;
57531;SDS011;43359;51.296;16.904;2022-11-02T06:52:53;97.85;;;89.53;;
57531;SDS011;43359;51.296;16.904;2022-11-02T06:55:19;110.85;;;100.93;;
57531;SDS011;43359;51.296;16.904;2022-11-02T06:57:46;115.68;;;106.38;;
57531;SDS011;43359;51.296;16.904;2022-11-02T07:00:13;119.85;;;110.35;;
57531;SDS011;43359;51.296;16.904;2022-11-02T07:02:42;135.60;;;126.30;;
57531;SDS011;43359;51.296;16.904;2022-11-02T07:05:08;123.47;;;114.65;;
57531;SDS011;43359;51.296;16.904;2022-11-02T07:07:34;123.68;;;114.72;;
57531;SDS011;43359;51.296;16.904;2022-11-02T07:10:00;130.18;;;121.18;;
57531;SDS011;43359;51.296;16.904;2022-11-02T07:12:27;121.55;;;112.93;;
57531;SDS011;43359;51.296;16.904;2022-11-02T07:14:53;111.30;;;103.45;;
57531;SDS011;43359;51.296;16.904;2022-11-02T07:17:19;98.57;;;91.32;;
57531;SDS011;43359;51.296;16.904;2022-11-02T07:19:45;109.25;;;101.80;;
57531;SDS011;43359;51.296;16.904;2022-11-02T07:22:11;108.03;;;100.90;;
57531;SDS011;43359;51.296;16.904;2022-11-02T07:24:37;110.18;;;102.38;;
57531;SDS011;43359;51.296;16.904;2022-11-02T07:27:03;121.05;;;113.47;;
57531;SDS011;43359;51.296;16.904;2022-11-02T07:29:29;101.75;;;95.13;;
57531;SDS011;43359;51.296;16.904;2022-11-02T07:31:56;102.43;;;96.20;;
57531;SDS011;43359;51.296;16.904;2022-11-02T07:34:22;102.72;;;95.93;;
57531;SDS011;43359;51.296;16.904;2022-11-02T07:36:48;103.45;;;96.82;;
57531;SDS011;43359;51.296;16.904;2022-11-02T07:39:14;101.07;;;94.32;;
57531;SDS011;43359;51.296;16.904;2022-11-02T07:41:40;94.25;;;87.82;;
57531;SDS011;43359;51.296;16.904;2022-11-02T07:44:07;95.15;;;88.80;;
57531;SDS011;43359;51.296;16.904;2022-11-02T07:46:33;96.32;;;90.28;;
57531;SDS011;43359;51.296;16.904;2022-11-02T07:48:59;96.18;;;90.22;;
57531;SDS011;43359;51.296;16.904;2022-11-02T07:51:27;95.28;;;89.47;;
57531;SDS011;43359;51.296;16.904;2022-11-02T07:53:53;101.85;;;95.30;;
57531;SDS011;43359;51.296;16.904;2022-11-02T07:56:19;90.85;;;84.68;;
57531;SDS011;43359;51.296;16.904;2022-11-02T07:58:46;100.22;;;93.97;;
57531;SDS011;43359;51.296;16.904;2022-11-02T08:01:13;96.43;;;90.65;;
57531;SDS011;43359;51.296;16.904;2022-11-02T08:03:39;101.20;;;95.03;;
57531;SDS011;43359;51.296;16.904;2022-11-02T08:06:06;105.47;;;99.68;;
57531;SDS011;43359;51.296;16.904;2022-11-02T08:08:34;97.45;;;91.70;;
57531;SDS011;43359;51.296;16.904;2022-11-02T08:11:04;92.72;;;87.63;;
57531;SDS011;43359;51.296;16.904;2022-11-02T08:13:31;91.78;;;86.68;;
57531;SDS011;43359;51.296;16.904;2022-11-02T08:15:57;90.70;;;85.80;;
57531;SDS011;43359;51.296;16.904;2022-11-02T08:18:24;88.05;;;82.85;;
57531;SDS011;43359;51.296;16.904;2022-11-02T08:20:51;85.25;;;80.78;;
57531;SDS011;43359;51.296;16.904;2022-11-02T08:23:18;82.57;;;78.20;;
57531;SDS011;43359;51.296;16.904;2022-11-02T08:25:46;83.68;;;78.70;;
57531;SDS011;43359;51.296;16.904;2022-11-02T08:28:14;84.55;;;79.78;;
57531;SDS011;43359;51.296;16.904;2022-11-02T08:30:40;89.50;;;84.75;;
57531;SDS011;43359;51.296;16.904;2022-11-02T08:33:07;85.18;;;80.90;;
57531;SDS011;43359;51.296;16.904;2022-11-02T08:35:35;89.43;;;84.85;;
57531;SDS011;43359;51.296;16.904;2022-11-02T08:38:02;80.97;;;76.88;;
57531;SDS011;43359;51.296;16.904;2022-11-02T08:40:29;73.35;;;69.20;;
57531;SDS011;43359;51.296;16.904;2022-11-02T08:42:58;75.93;;;71.97;;
57531;SDS011;43359;51.296;16.904;2022-11-02T08:45:25;77.50;;;73.80;;
57531;SDS011;43359;51.296;16.904;2022-11-02T08:47:52;73.82;;;70.13;;
57531;SDS011;43359;51.296;16.904;2022-11-02T08:50:18;73.82;;;70.43;;
57531;SDS011;43359;51.296;16.904;2022-11-02T08:52:44;76.75;;;73.15;;
57531;SDS011;43359;51.296;16.904;2022-11-02T08:55:10;89.47;;;85.45;;
57531;SDS011;43359;51.296;16.904;2022-11-02T08:57:45;91.80;;;87.60;;
57531;SDS011;43359;51.296;16.904;2022-11-02T09:00:12;98.55;;;94.47;;
57531;SDS011;43359;51.296;16.904;2022-11-02T09:02:38;82.97;;;79.35;;
57531;SDS011;43359;51.296;16.904;2022-11-02T09:05:05;80.60;;;77.30;;
57531;SDS011;43359;51.296;16.904;2022-11-02T09:07:31;85.18;;;81.38;;
57531;SDS011;43359;51.296;16.904;2022-11-02T09:09:57;84.93;;;81.38;;
57531;SDS011;43359;51.296;16.904;2022-11-02T09:12:23;80.68;;;77.07;;
57531;SDS011;43359;51.296;16.904;2022-11-02T09:14:49;84.65;;;81.10;;
57531;SDS011;43359;51.296;16.904;2022-11-02T09:17:15;86.03;;;82.15;;
57531;SDS011;43359;51.296;16.904;2022-11-02T09:19:42;73.53;;;70.13;;
57531;SDS011;43359;51.296;16.904;2022-11-02T09:22:08;92.80;;;89.10;;
57531;SDS011;43359;51.296;16.904;2022-11-02T09:24:34;88.72;;;85.20;;
57531;SDS011;43359;51.296;16.904;2022-11-02T09:27:00;94.60;;;90.85;;
57531;SDS011;43359;51.296;16.904;2022-11-02T09:29:27;87.72;;;83.80;;
57531;SDS011;43359;51.296;16.904;2022-11-02T09:31:53;85.68;;;82.10;;
57531;SDS011;43359;51.296;16.904;2022-11-02T09:34:19;78.18;;;75.00;;
57531;SDS011;43359;51.296;16.904;2022-11-02T09:36:45;81.97;;;78.25;;
57531;SDS011;43359;51.296;16.904;2022-11-02T09:39:11;85.35;;;81.88;;
57531;SDS011;43359;51.296;16.904;2022-11-02T09:41:55;79.35;;;76.15;;
57531;SDS011;43359;51.296;16.904;2022-11-02T09:47:06;82.28;;;78.78;;
57531;SDS011;43359;51.296;16.904;2022-11-02T09:49:33;97.60;;;94.07;;
57531;SDS011;43359;51.296;16.904;2022-11-02T09:52:00;111.25;;;107.05;;
57531;SDS011;43359;51.296;16.904;2022-11-02T09:54:27;103.80;;;100.00;;
57531;SDS011;43359;51.296;16.904;2022-11-02T09:56:55;109.63;;;105.63;;
57531;SDS011;43359;51.296;16.904;2022-11-02T09:59:24;115.50;;;111.30;;
57531;SDS011;43359;51.296;16.904;2022-11-02T10:09:55;108.60;;;104.47;;
57531;SDS011;43359;51.296;16.904;2022-11-02T10:12:27;105.20;;;101.40;;
57531;SDS011;43359;51.296;16.904;2022-11-02T10:14:58;111.80;;;107.90;;
57531;SDS011;43359;51.296;16.904;2022-11-02T10:17:28;97.43;;;93.70;;
57531;SDS011;43359;51.296;16.904;2022-11-02T10:19:56;107.20;;;103.32;;
57531;SDS011;43359;51.296;16.904;2022-11-02T10:22:24;91.18;;;87.68;;
57531;SDS011;43359;51.296;16.904;2022-11-02T10:24:52;99.05;;;95.30;;
57531;SDS011;43359;51.296;16.904;2022-11-02T10:27:21;92.22;;;88.65;;
57531;SDS011;43359;51.296;16.904;2022-11-02T10:29:58;92.57;;;88.90;;
57531;SDS011;43359;51.296;16.904;2022-11-02T10:32:26;99.50;;;95.90;;
57531;SDS011;43359;51.296;16.904;2022-11-02T10:34:53;95.10;;;91.40;;
57531;SDS011;43359;51.296;16.904;2022-11-02T10:40:00;91.18;;;87.70;;
57531;SDS011;43359;51.296;16.904;2022-11-02T10:42:34;97.70;;;94.35;;
57531;SDS011;43359;51.296;16.904;2022-11-02T10:45:24;96.57;;;92.78;;
57531;SDS011;43359;51.296;16.904;2022-11-02T10:53:07;105.07;;;101.18;;
57531;SDS011;43359;51.296;16.904;2022-11-02T10:58:21;109.10;;;105.07;;
57531;SDS011;43359;51.296;16.904;2022-11-02T11:00:47;104.95;;;100.80;;
57531;SDS011;43359;51.296;16.904;2022-11-02T11:03:16;109.38;;;105.15;;
57531;SDS011;43359;51.296;16.904;2022-11-02T11:11:08;110.07;;;106.05;;
57531;SDS011;43359;51.296;16.904;2022-11-02T11:13:34;116.03;;;111.00;;
57531;SDS011;43359;51.296;16.904;2022-11-02T11:16:01;118.38;;;114.03;;
57531;SDS011;43359;51.296;16.904;2022-11-02T11:18:28;97.88;;;94.28;;
57531;SDS011;43359;51.296;16.904;2022-11-02T11:20:54;119.82;;;115.53;;
57531;SDS011;43359;51.296;16.904;2022-11-02T11:23:22;119.40;;;114.80;;
57531;SDS011;43359;51.296;16.904;2022-11-02T11:26:01;115.57;;;111.05;;
57531;SDS011;43359;51.296;16.904;2022-11-02T11:33:28;116.80;;;112.57;;
57531;SDS011;43359;51.296;16.904;2022-11-02T11:35:55;101.88;;;98.22;;
57531;SDS011;43359;51.296;16.904;2022-11-02T11:38:21;110.30;;;106.25;;
57531;SDS011;43359;51.296;16.904;2022-11-02T11:40:49;119.78;;;115.18;;
57531;SDS011;43359;51.296;16.904;2022-11-02T11:43:18;107.15;;;103.07;;
57531;SDS011;43359;51.296;16.904;2022-11-02T11:45:58;86.22;;;82.65;;
57531;SDS011;43359;51.296;16.904;2022-11-02T11:48:45;94.68;;;90.97;;
57531;SDS011;43359;51.296;16.904;2022-11-02T11:51:28;115.28;;;110.65;;
57531;SDS011;43359;51.296;16.904;2022-11-02T11:56:39;119.07;;;114.60;;
57531;SDS011;43359;51.296;16.904;2022-11-02T11:59:18;118.22;;;113.93;;
57531;SDS011;43359;51.296;16.904;2022-11-02T12:01:45;121.22;;;116.32;;
57531;SDS011;43359;51.296;16.904;2022-11-02T12:04:11;115.75;;;111.55;;
57531;SDS011;43359;51.296;16.904;2022-11-02T12:09:24;99.95;;;96.28;;
57531;SDS011;43359;51.296;16.904;2022-11-02T12:19:51;96.22;;;92.53;;
57531;SDS011;43359;51.296;16.904;2022-11-02T12:22:28;100.30;;;96.35;;
57531;SDS011;43359;51.296;16.904;2022-11-02T12:30:18;86.55;;;83.28;;
57531;SDS011;43359;51.296;16.904;2022-11-02T12:32:54;97.22;;;93.22;;
57531;SDS011;43359;51.296;16.904;2022-11-02T12:48:33;88.75;;;85.28;;
57531;SDS011;43359;51.296;16.904;2022-11-02T12:51:11;93.90;;;90.30;;
57531;SDS011;43359;51.296;16.904;2022-11-02T12:53:48;89.32;;;85.85;;
57531;SDS011;43359;51.296;16.904;2022-11-02T12:56:17;96.82;;;92.95;;
57531;SDS011;43359;51.296;16.904;2022-11-02T12:58:44;105.90;;;101.93;;
57531;SDS011;43359;51.296;16.904;2022-11-02T13:03:59;100.47;;;96.72;;
57531;SDS011;43359;51.296;16.904;2022-11-02T13:06:24;98.57;;;94.78;;
57531;SDS011;43359;51.296;16.904;2022-11-02T13:09:00;96.40;;;92.35;;
57531;SDS011;43359;51.296;16.904;2022-11-02T13:11:29;104.47;;;100.40;;
57531;SDS011;43359;51.296;16.904;2022-11-02T13:13:56;104.82;;;101.03;;
57531;SDS011;43359;51.296;16.904;2022-11-02T13:16:32;99.38;;;95.45;;
57531;SDS011;43359;51.296;16.904;2022-11-02T13:19:00;85.53;;;82.22;;
57531;SDS011;43359;51.296;16.904;2022-11-02T13:21:35;81.07;;;77.57;;
57531;SDS011;43359;51.296;16.904;2022-11-02T13:24:02;81.87;;;78.77;;
57531;SDS011;43359;51.296;16.904;2022-11-02T13:26:34;91.22;;;87.45;;
57531;SDS011;43359;51.296;16.904;2022-11-02T13:33:57;84.43;;;80.80;;
57531;SDS011;43359;51.296;16.904;2022-11-02T13:36:25;77.38;;;74.20;;
57531;SDS011;43359;51.296;16.904;2022-11-02T13:38:58;68.55;;;65.72;;
57531;SDS011;43359;51.296;16.904;2022-11-02T13:49:04;85.05;;;81.60;;
57531;SDS011;43359;51.296;16.904;2022-11-02T13:51:53;79.15;;;75.80;;
57531;SDS011;43359;51.296;16.904;2022-11-02T13:54:35;74.35;;;71.20;;
57531;SDS011;43359;51.296;16.904;2022-11-02T13:57:03;84.20;;;81.00;;
57531;SDS011;43359;51.296;16.904;2022-11-02T13:59:30;95.25;;;90.65;;
57531;SDS011;43359;51.296;16.904;2022-11-02T14:01:58;79.07;;;75.68;;
57531;SDS011;43359;51.296;16.904;2022-11-02T14:04:25;92.80;;;88.95;;
57531;SDS011;43359;51.296;16.904;2022-11-02T14:06:54;100.65;;;96.88;;
57531;SDS011;43359;51.296;16.904;2022-11-02T14:09:28;93.30;;;89.47;;
57531;SDS011;43359;51.296;16.904;2022-11-02T14:12:17;78.05;;;75.05;;
57531;SDS011;43359;51.296;16.904;2022-11-02T14:20:39;97.57;;;93.70;;
57531;SDS011;43359;51.296;16.904;2022-11-02T14:25:50;89.85;;;85.88;;
57531;SDS011;43359;51.296;16.904;2022-11-02T14:30:47;93.32;;;89.47;;
57531;SDS011;43359;51.296;16.904;2022-11-02T14:36:27;92.13;;;88.53;;
57531;SDS011;43359;51.296;16.904;2022-11-02T14:38:56;100.93;;;96.95;;
57531;SDS011;43359;51.296;16.904;2022-11-02T14:41:28;103.18;;;99.32;;
57531;SDS011;43359;51.296;16.904;2022-11-02T14:44:05;110.47;;;106.32;;
57531;SDS011;43359;51.296;16.904;2022-11-02T14:49:02;80.47;;;77.10;;
57531;SDS011;43359;51.296;16.904;2022-11-02T14:51:32;86.68;;;83.28;;
57531;SDS011;43359;51.296;16.904;2022-11-02T14:54:03;71.10;;;68.10;;
57531;SDS011;43359;51.296;16.904;2022-11-02T14:59:16;91.35;;;87.60;;
57531;SDS011;43359;51.296;16.904;2022-11-02T15:01:47;107.72;;;103.43;;
57531;SDS011;43359;51.296;16.904;2022-11-02T15:04:15;80.05;;;76.78;;
57531;SDS011;43359;51.296;16.904;2022-11-02T15:06:48;84.07;;;80.57;;
57531;SDS011;43359;51.296;16.904;2022-11-02T15:09:49;95.90;;;92.30;;
57531;SDS011;43359;51.296;16.904;2022-11-02T15:12:19;77.72;;;74.63;;
57531;SDS011;43359;51.296;16.904;2022-11-02T15:19:51;71.30;;;68.30;;
57531;SDS011;43359;51.296;16.904;2022-11-02T15:25:12;69.22;;;65.85;;
57531;SDS011;43359;51.296;16.904;2022-11-02T15:27:41;73.88;;;70.97;;
57531;SDS011;43359;51.296;16.904;2022-11-02T15:30:20;62.25;;;59.70;;
57531;SDS011;43359;51.296;16.904;2022-11-02T15:32:57;87.07;;;79.50;;
57531;SDS011;43359;51.296;16.904;2022-11-02T15:35:25;59.25;;;56.63;;
57531;SDS011;43359;51.296;16.904;2022-11-02T15:37:59;56.53;;;53.78;;
57531;SDS011;43359;51.296;16.904;2022-11-02T15:40:32;70.25;;;67.22;;
57531;SDS011;43359;51.296;16.904;2022-11-02T15:45:28;37.00;;;34.90;;
57531;SDS011;43359;51.296;16.904;2022-11-02T15:47:59;39.25;;;37.28;;
57531;SDS011;43359;51.296;16.904;2022-11-02T15:50:29;36.35;;;34.25;;
57531;SDS011;43359;51.296;16.904;2022-11-02T15:53:09;44.25;;;41.83;;
57531;SDS011;43359;51.296;16.904;2022-11-02T15:55:51;49.75;;;47.45;;
57531;SDS011;43359;51.296;16.904;2022-11-02T15:58:27;41.28;;;39.17;;
57531;SDS011;43359;51.296;16.904;2022-11-02T16:01:15;47.75;;;45.63;;
57531;SDS011;43359;51.296;16.904;2022-11-02T16:03:46;47.35;;;44.90;;
57531;SDS011;43359;51.296;16.904;2022-11-02T16:06:12;53.80;;;51.33;;
57531;SDS011;43359;51.296;16.904;2022-11-02T16:08:39;40.47;;;38.00;;
57531;SDS011;43359;51.296;16.904;2022-11-02T16:11:13;48.47;;;45.97;;
57531;SDS011;43359;51.296;16.904;2022-11-02T16:13:41;43.15;;;40.85;;